createdAt,value
2019-05-13T00:01:34.502Z,60.45
2019-05-13T00:04:06.886Z,60.00
2019-05-13T00:06:51.382Z,61.38
2019-05-13T00:09:14.117Z,61.99
2019-05-13T00:11:46.593Z,60.67
2019-05-13T00:14:19.025Z,60.67
2019-05-13T00:16:53.480Z,62.17
2019-05-13T00:19:25.895Z,60.92
2019-05-13T00:21:59.787Z,62.22
2019-05-13T00:24:33.972Z,62.56
2019-05-13T00:27:06.767Z,64.02
2019-05-13T00:29:39.277Z,63.26
2019-05-13T00:32:13.498Z,63.91
2019-05-13T00:34:46.147Z,63.91
2019-05-13T00:37:18.593Z,62.31
2019-05-13T00:39:51.047Z,63.74
2019-05-13T00:42:24.490Z,63.87
2019-05-13T00:44:57.258Z,64.81
2019-05-13T00:47:34.201Z,61.75
2019-05-13T00:50:07.251Z,63.96
2019-05-13T00:52:39.441Z,62.65
2019-05-13T00:55:15.300Z,62.84
2019-05-13T00:57:47.650Z,61.76
2019-05-13T01:00:20.622Z,61.76
2019-05-13T01:02:54.617Z,62.66
2019-05-13T01:05:33.878Z,61.10
2019-05-13T01:08:06.296Z,61.82
2019-05-13T01:10:38.259Z,62.55
2019-05-13T01:13:10.260Z,63.60
2019-05-13T01:15:44.416Z,65.29
2019-05-13T01:18:17.708Z,66.00
2019-05-13T01:20:50.055Z,66.00
2019-05-13T01:23:24.046Z,65.91
2019-05-13T01:25:56.682Z,68.49
2019-05-13T01:28:30.674Z,68.49
2019-05-13T01:31:05.001Z,67.96
2019-05-13T01:33:37.334Z,67.58
2019-05-13T01:36:13.370Z,66.29
2019-05-13T01:38:46.060Z,66.29
2019-05-13T01:41:18.458Z,69.12
2019-05-13T01:43:50.721Z,70.63
2019-05-13T01:46:26.335Z,68.67
2019-05-13T01:48:58.748Z,65.41
2019-05-13T01:51:33.467Z,65.41
2019-05-13T01:54:05.419Z,70.50
2019-05-13T01:56:39.460Z,70.49
2019-05-13T01:59:15.311Z,70.11
2019-05-13T02:01:47.778Z,70.86
2019-05-13T02:04:20.291Z,71.43
2019-05-13T02:06:54.483Z,70.88
2019-05-13T02:09:26.830Z,70.88
2019-05-13T02:11:59.288Z,71.74
2019-05-13T02:14:34.047Z,72.10
2019-05-13T02:17:06.767Z,72.10
2019-05-13T02:19:39.286Z,73.20
2019-05-13T02:22:11.256Z,75.22
2019-05-13T02:24:44.653Z,75.66
2019-05-13T02:27:17.287Z,75.39
2019-05-13T02:29:49.749Z,77.36
2019-05-13T02:32:23.438Z,77.36
2019-05-13T02:35:02.748Z,76.97
2019-05-13T02:37:34.375Z,77.62
2019-05-13T02:40:09.009Z,77.93
2019-05-13T02:42:44.306Z,78.09
2019-05-13T02:45:16.921Z,78.13
2019-05-13T02:47:52.000Z,78.13
2019-05-13T02:50:26.643Z,78.93
2019-05-13T02:53:02.380Z,78.12
2019-05-13T02:55:34.740Z,78.70
2019-05-13T02:58:07.290Z,78.70
2019-05-13T03:00:43.821Z,80.52
2019-05-13T03:03:13.620Z,79.59
2019-05-13T03:05:45.991Z,79.59
2019-05-13T03:08:34.215Z,81.29
2019-05-13T03:10:53.074Z,80.29
2019-05-13T03:13:27.289Z,81.49
2019-05-13T03:16:13.202Z,82.09
2019-05-13T03:18:45.498Z,82.09
2019-05-13T03:21:18.503Z,82.21
2019-05-13T03:23:52.560Z,82.14
2019-05-13T03:26:24.404Z,82.46
2019-05-13T03:28:57.287Z,82.66
2019-05-13T03:31:35.231Z,83.27
2019-05-13T03:34:06.426Z,83.27
2019-05-13T03:36:45.767Z,83.71
2019-05-13T03:39:16.889Z,83.19
2019-05-13T03:41:54.289Z,83.24
2019-05-13T03:44:32.472Z,83.80
2019-05-13T03:47:12.252Z,83.35
2019-05-13T03:49:47.421Z,83.64
2019-05-13T03:52:22.487Z,84.28
2019-05-13T03:54:55.572Z,82.44
2019-05-13T03:57:29.038Z,84.51
2019-05-13T04:00:03.577Z,83.93
2019-05-13T04:02:36.014Z,83.67
2019-05-13T04:05:08.762Z,83.67
2019-05-13T04:07:43.426Z,84.49
2019-05-13T04:10:16.035Z,84.32
2019-05-13T04:12:48.540Z,83.72
2019-05-13T04:15:23.857Z,84.67
2019-05-13T04:18:02.685Z,81.51
2019-05-13T04:20:34.891Z,84.07
2019-05-13T04:23:07.310Z,84.09
2019-05-13T04:25:44.500Z,84.30
2019-05-13T04:28:14.547Z,84.30
2019-05-13T04:30:48.614Z,81.68
2019-05-13T04:33:23.011Z,80.89
2019-05-13T04:35:55.596Z,83.33
2019-05-13T04:38:28.288Z,83.96
2019-05-13T04:41:03.465Z,82.41
2019-05-13T04:43:35.074Z,82.41
2019-05-13T04:46:07.584Z,80.71
2019-05-13T04:48:44.261Z,80.62
2019-05-13T04:51:16.298Z,79.76
2019-05-13T04:53:53.689Z,78.87
2019-05-13T04:56:23.347Z,78.87
2019-05-13T04:58:55.735Z,79.32
2019-05-13T05:01:55.395Z,79.32
2019-05-13T05:04:35.173Z,80.41
2019-05-13T05:07:25.660Z,80.04
2019-05-13T05:10:34.746Z,80.04
2019-05-13T05:14:02.503Z,78.13
2019-05-13T05:17:06.658Z,76.23
2019-05-13T05:23:21.404Z,78.97
2019-05-13T05:26:47.383Z,74.60
2019-05-13T05:30:17.024Z,74.22
2019-05-13T05:33:42.807Z,74.22
2019-05-13T05:36:42.316Z,71.87
2019-05-13T05:39:25.712Z,70.33
2019-05-13T05:42:02.210Z,67.19
2019-05-13T05:44:34.289Z,70.02
2019-05-13T05:47:06.694Z,70.02
2019-05-13T05:49:43.480Z,69.51
2019-05-13T05:52:17.925Z,68.00
2019-05-13T05:54:54.571Z,67.05
2019-05-13T05:57:31.663Z,63.85
2019-05-13T06:00:11.519Z,63.34
2019-05-13T06:02:47.884Z,62.57
2019-05-13T06:05:21.395Z,61.05
2019-05-13T06:07:54.067Z,63.23
2019-05-13T06:10:26.750Z,60.85
2019-05-13T06:13:01.836Z,62.28
2019-05-13T06:15:37.365Z,59.24
2019-05-13T06:20:13.237Z,60.15
2019-05-13T06:22:44.719Z,58.94
2019-05-13T06:25:17.314Z,58.50
2019-05-13T06:27:51.518Z,57.21
2019-05-13T06:30:24.291Z,57.21
2019-05-13T06:32:56.712Z,56.14
2019-05-13T06:35:29.380Z,56.14
2019-05-13T06:38:01.764Z,55.81
2019-05-13T06:40:34.301Z,56.26
2019-05-13T06:43:06.753Z,54.25
2019-05-13T06:45:39.298Z,54.25
2019-05-13T06:48:11.910Z,53.94
2019-05-13T06:50:47.386Z,53.94
2019-05-13T06:53:21.773Z,52.60
2019-05-13T06:55:54.051Z,52.15
2019-05-13T06:58:26.438Z,51.98
2019-05-13T07:00:59.058Z,51.59
2019-05-13T07:03:32.333Z,51.63
2019-05-13T07:06:05.041Z,50.85
2019-05-13T07:08:37.838Z,50.92
2019-05-13T07:11:21.453Z,50.20
2019-05-13T07:13:44.856Z,48.87
2019-05-13T07:16:17.519Z,48.87
2019-05-13T07:18:52.087Z,50.15
2019-05-13T07:21:26.344Z,48.89
2019-05-13T07:23:58.920Z,49.48
2019-05-13T07:26:31.680Z,49.43
2019-05-13T07:29:04.913Z,46.97
2019-05-13T07:31:38.290Z,47.35
2019-05-13T07:34:11.634Z,47.12
2019-05-13T07:36:47.580Z,47.12
2019-05-13T07:39:22.306Z,45.21
2019-05-13T07:41:56.281Z,43.51
2019-05-13T07:44:32.164Z,43.23
2019-05-13T07:47:06.368Z,43.23
2019-05-13T07:49:39.169Z,43.05
2019-05-13T07:52:22.542Z,43.05
2019-05-13T07:54:54.330Z,43.66
2019-05-13T07:57:26.754Z,43.29
2019-05-13T08:00:02.128Z,42.94
2019-05-13T08:02:38.294Z,42.45
2019-05-13T08:05:16.507Z,41.88
2019-05-13T08:07:51.522Z,43.19
2019-05-13T08:10:26.765Z,40.82
2019-05-13T08:13:02.474Z,41.09
2019-05-13T08:15:36.649Z,41.29
2019-05-13T08:18:12.554Z,41.74
2019-05-13T08:20:52.495Z,41.36
2019-05-13T08:23:26.047Z,42.50
2019-05-13T08:26:03.051Z,41.54
2019-05-13T08:28:53.981Z,39.75
2019-05-13T08:31:23.863Z,40.13
2019-05-13T08:34:02.618Z,39.75
2019-05-13T08:36:35.267Z,38.13
2019-05-13T08:39:12.786Z,39.07
2019-05-13T08:41:44.938Z,39.07
2019-05-13T08:44:17.607Z,39.32
2019-05-13T08:46:51.864Z,38.70
2019-05-13T08:49:25.042Z,37.48
2019-05-13T08:51:57.760Z,37.48
2019-05-13T08:54:33.134Z,37.81
2019-05-13T08:57:06.050Z,37.49
2019-05-13T08:59:38.846Z,36.91
2019-05-13T09:02:11.617Z,35.42
2019-05-13T09:04:45.766Z,34.66
2019-05-13T09:07:21.858Z,33.96
2019-05-13T09:09:52.770Z,32.98
2019-05-13T09:12:32.343Z,33.60
2019-05-13T09:15:03.363Z,33.17
2019-05-13T09:17:35.365Z,31.27
2019-05-13T09:20:11.499Z,32.59
2019-05-13T09:22:44.713Z,32.16
2019-05-13T09:25:17.476Z,32.07
2019-05-13T09:27:51.327Z,32.72
2019-05-13T09:30:27.248Z,33.42
2019-05-13T09:32:58.666Z,33.52
2019-05-13T09:35:33.306Z,33.34
2019-05-13T09:38:06.287Z,32.60
2019-05-13T09:40:38.851Z,31.82
2019-05-13T09:43:11.757Z,31.82
2019-05-13T09:45:52.309Z,31.78
2019-05-13T09:48:25.007Z,32.69
2019-05-13T09:50:57.850Z,32.69
2019-05-13T09:54:11.687Z,31.84
2019-05-13T09:56:44.713Z,32.47
2019-05-13T09:59:21.965Z,32.08
2019-05-13T10:01:54.083Z,31.41
2019-05-13T10:04:27.549Z,30.34
2019-05-13T10:07:02.743Z,30.87
2019-05-13T10:09:38.684Z,30.54
2019-05-13T10:12:12.477Z,31.69
2019-05-13T10:14:45.547Z,30.08
2019-05-13T10:17:18.281Z,29.66
2019-05-13T10:19:52.008Z,29.90
2019-05-13T10:22:26.372Z,29.90
2019-05-13T10:25:06.754Z,30.00
2019-05-13T10:27:41.847Z,29.91
2019-05-13T10:30:15.463Z,29.51
2019-05-13T10:32:48.297Z,29.51
2019-05-13T10:35:20.224Z,28.09
2019-05-13T10:37:55.759Z,28.09
2019-05-13T10:40:28.474Z,28.00
2019-05-13T10:43:01.897Z,28.77
2019-05-13T10:45:37.965Z,28.32
2019-05-13T10:48:10.388Z,27.69
2019-05-13T10:50:42.670Z,27.69
2019-05-13T10:53:16.621Z,26.41
2019-05-13T10:55:52.176Z,25.54
2019-05-13T10:58:23.666Z,24.71
2019-05-13T11:00:57.714Z,26.12
2019-05-13T11:03:32.954Z,26.16
2019-05-13T11:06:06.308Z,27.22
2019-05-13T11:08:41.984Z,27.56
2019-05-13T11:11:13.585Z,27.19
2019-05-13T11:13:54.913Z,27.85
2019-05-13T11:16:22.589Z,28.50
2019-05-13T11:18:55.600Z,28.09
2019-05-13T11:21:31.622Z,28.68
2019-05-13T11:24:03.858Z,26.13
2019-05-13T11:26:36.765Z,26.13
2019-05-13T11:29:12.131Z,26.35
2019-05-13T11:31:44.891Z,26.14
2019-05-13T11:34:17.447Z,26.34
2019-05-13T11:36:53.217Z,27.27
2019-05-13T11:39:24.852Z,26.60
2019-05-13T11:41:57.348Z,26.10
2019-05-13T11:44:32.340Z,24.90
2019-05-13T11:47:05.047Z,24.90
2019-05-13T11:49:37.542Z,25.10
2019-05-13T11:52:11.661Z,25.73
2019-05-13T11:54:44.479Z,24.57
2019-05-13T11:57:16.803Z,22.98
2019-05-13T11:59:52.355Z,22.99
2019-05-13T12:02:23.545Z,22.18
2019-05-13T12:04:56.297Z,21.96
2019-05-13T12:07:28.777Z,20.32
2019-05-13T12:10:02.697Z,20.32
2019-05-13T12:12:35.323Z,19.37
2019-05-13T12:15:33.489Z,18.16
2019-05-13T12:17:56.469Z,18.16
2019-05-13T12:20:32.817Z,18.72
2019-05-13T12:23:04.825Z,18.27
2019-05-13T12:25:37.325Z,19.98
2019-05-13T12:28:11.423Z,17.55
2019-05-13T12:30:44.033Z,17.55
2019-05-13T12:33:16.532Z,16.75
2019-05-13T12:35:52.578Z,15.64
2019-05-13T12:38:23.300Z,15.00
2019-05-13T12:40:55.693Z,14.37
2019-05-13T12:43:28.288Z,14.96
2019-05-13T12:46:02.270Z,16.51
2019-05-13T12:48:35.398Z,16.51
2019-05-13T12:51:07.862Z,17.66
2019-05-13T12:53:43.521Z,16.16
2019-05-13T12:56:14.446Z,14.19
2019-05-13T12:58:46.713Z,13.42
2019-05-13T13:01:19.292Z,12.58
2019-05-13T13:03:51.758Z,15.05
2019-05-13T13:06:32.502Z,15.05
2019-05-13T13:08:57.424Z,16.03
2019-05-13T13:11:32.086Z,17.32
2019-05-13T13:14:05.720Z,15.70
2019-05-13T13:16:37.247Z,16.35
2019-05-13T13:19:14.024Z,14.73
2019-05-13T13:21:44.269Z,14.73
2019-05-13T13:24:16.712Z,13.37
2019-05-13T13:26:52.563Z,13.37
2019-05-13T13:29:22.608Z,13.15
2019-05-13T13:34:33.444Z,9.97
2019-05-13T13:37:05.032Z,10.69
2019-05-13T13:39:37.611Z,10.64
2019-05-13T13:42:12.881Z,10.64
2019-05-13T13:44:44.637Z,11.35
2019-05-13T13:47:17.383Z,9.34
2019-05-13T13:49:53.274Z,11.44
2019-05-13T13:52:26.123Z,10.69
2019-05-13T13:55:03.452Z,9.47
2019-05-13T13:57:32.700Z,8.06
2019-05-13T14:00:26.342Z,9.14
2019-05-13T14:02:43.093Z,8.38
2019-05-13T14:05:16.051Z,9.07
2019-05-13T14:06:58.379Z,11.79
2019-05-13T14:07:48.373Z,9.07
2019-05-13T14:10:21.993Z,8.74
2019-05-13T14:12:54.711Z,9.37
2019-05-13T14:15:30.867Z,9.37
2019-05-13T14:18:02.300Z,8.67
2019-05-13T14:20:34.698Z,9.14
2019-05-13T14:23:07.410Z,8.91
2019-05-13T14:25:42.043Z,8.34
2019-05-13T14:28:17.673Z,7.55
2019-05-13T14:30:51.431Z,9.23
2019-05-13T14:33:24.295Z,7.40
2019-05-13T14:35:56.583Z,7.92
2019-05-13T14:38:28.970Z,7.92
2019-05-13T14:41:03.493Z,8.46
2019-05-13T14:43:36.286Z,7.85
2019-05-13T14:46:08.742Z,8.13
2019-05-13T14:48:43.347Z,8.13
2019-05-13T14:51:15.383Z,9.84
2019-05-13T14:53:47.689Z,11.39
2019-05-13T14:56:22.125Z,11.39
2019-05-13T14:58:54.421Z,12.01
2019-05-13T15:01:26.789Z,13.47
2019-05-13T15:03:59.359Z,12.55
2019-05-13T15:06:32.893Z,9.44
2019-05-13T15:09:07.379Z,9.44
2019-05-13T15:11:41.914Z,12.79
2019-05-13T15:14:14.296Z,12.79
2019-05-13T15:17:00.551Z,13.97
2019-05-13T15:19:22.337Z,13.97
2019-05-13T15:21:54.241Z,15.20
2019-05-13T15:24:28.016Z,15.77
2019-05-13T15:27:00.656Z,15.95
2019-05-13T15:29:34.304Z,14.02
2019-05-13T15:32:08.013Z,9.42
2019-05-13T15:34:45.809Z,9.42
2019-05-13T15:37:18.358Z,8.61
2019-05-13T15:39:51.853Z,8.48
2019-05-13T15:42:24.744Z,8.48
2019-05-13T15:44:57.299Z,8.42
2019-05-13T15:47:30.320Z,7.37
2019-05-13T15:50:03.344Z,7.78
2019-05-13T15:52:36.008Z,8.03
2019-05-13T15:55:11.970Z,9.38
2019-05-13T15:57:44.333Z,10.62
2019-05-13T16:00:17.298Z,12.84
2019-05-13T16:02:52.072Z,12.84
2019-05-13T16:05:23.140Z,11.79
2019-05-13T16:07:55.707Z,10.93
2019-05-13T16:10:28.312Z,11.05
2019-05-13T16:13:02.328Z,13.23
2019-05-13T16:15:36.295Z,13.23
2019-05-13T16:18:08.595Z,14.01
2019-05-13T16:20:44.435Z,14.01
2019-05-13T16:23:15.362Z,15.54
2019-05-13T16:25:48.036Z,16.95
2019-05-13T16:28:20.384Z,16.95
2019-05-13T16:30:52.758Z,19.22
2019-05-13T16:33:25.293Z,19.22
2019-05-13T16:35:58.530Z,20.41
2019-05-13T16:38:33.019Z,20.41
2019-05-13T16:41:05.767Z,20.39
2019-05-13T16:43:38.473Z,20.76
2019-05-13T16:46:12.094Z,21.16
2019-05-13T16:48:46.027Z,21.55
2019-05-13T16:51:21.411Z,22.14
2019-05-13T16:53:52.795Z,22.89
2019-05-13T16:56:30.409Z,22.89
2019-05-13T17:01:38.507Z,23.08
2019-05-13T17:04:12.613Z,23.37
2019-05-13T17:06:45.347Z,23.46
2019-05-13T17:09:18.028Z,23.92
2019-05-13T17:11:51.942Z,23.65
2019-05-13T17:14:24.685Z,23.95
2019-05-13T17:16:57.323Z,23.95
2019-05-13T17:19:31.800Z,23.85
2019-05-13T17:22:04.515Z,24.39
2019-05-13T17:24:38.349Z,25.09
2019-05-13T17:30:14.071Z,25.64
2019-05-13T17:32:48.368Z,26.15
2019-05-13T17:35:22.564Z,26.02
2019-05-13T17:37:55.424Z,26.02
2019-05-13T17:40:32.067Z,26.50
2019-05-13T17:43:04.612Z,27.17
2019-05-13T17:45:37.151Z,27.40
2019-05-13T17:48:25.437Z,27.91
2019-05-13T17:50:44.481Z,28.30
2019-05-13T17:53:32.703Z,28.18
2019-05-13T17:56:13.482Z,28.57
2019-05-13T17:59:53.537Z,27.76
2019-05-13T18:02:31.271Z,28.17
2019-05-13T18:05:17.872Z,28.80
2019-05-13T18:07:53.510Z,28.89
2019-05-13T18:10:41.961Z,29.72
2019-05-13T18:13:41.420Z,28.41
2019-05-13T18:16:14.506Z,30.24
2019-05-13T18:18:47.778Z,29.27
2019-05-13T18:21:20.665Z,28.46
2019-05-13T18:23:53.294Z,29.51
2019-05-13T18:26:26.093Z,29.12
2019-05-13T18:28:58.872Z,29.12
2019-05-13T18:31:31.594Z,29.57
2019-05-13T18:34:04.891Z,31.37
2019-05-13T18:36:37.499Z,30.58
2019-05-13T18:39:12.600Z,30.66
2019-05-13T18:41:45.299Z,30.84
2019-05-13T18:44:17.700Z,31.20
2019-05-13T18:46:52.412Z,31.20
2019-05-13T18:49:24.391Z,30.50
2019-05-13T18:51:57.389Z,30.08
2019-05-13T18:54:31.649Z,30.08
2019-05-13T18:57:05.723Z,31.07
2019-05-13T18:59:42.076Z,30.32
2019-05-13T19:03:24.856Z,30.85
2019-05-13T19:05:57.501Z,31.90
2019-05-13T19:08:32.094Z,32.50
2019-05-13T19:11:05.439Z,32.27
2019-05-13T19:13:41.711Z,31.92
2019-05-13T19:16:14.355Z,32.82
2019-05-13T19:18:47.399Z,33.18
2019-05-13T19:21:21.909Z,33.36
2019-05-13T19:23:57.477Z,34.38
2019-05-13T19:26:29.910Z,35.95
2019-05-13T19:29:03.929Z,35.02
2019-05-13T19:31:36.692Z,35.85
2019-05-13T19:34:09.317Z,36.16
2019-05-13T19:36:42.009Z,37.51
2019-05-13T19:39:14.698Z,37.51
2019-05-13T19:41:49.004Z,37.93
2019-05-13T19:44:22.037Z,37.91
2019-05-13T19:46:55.053Z,37.79
2019-05-13T19:49:33.014Z,37.81
2019-05-13T19:52:03.322Z,35.96
2019-05-13T19:54:35.735Z,36.16
2019-05-13T19:57:08.627Z,36.16
2019-05-13T19:59:42.674Z,36.94
2019-05-13T20:02:15.521Z,36.48
2019-05-13T20:04:48.311Z,37.19
2019-05-13T20:07:22.455Z,38.50
2019-05-13T20:09:55.306Z,38.50
2019-05-13T20:12:27.859Z,38.17
2019-05-13T20:15:01.417Z,38.17
2019-05-13T20:17:36.149Z,37.66
2019-05-13T20:20:12.417Z,36.80
2019-05-13T20:22:44.767Z,36.46
2019-05-13T20:25:17.422Z,36.91
2019-05-13T20:27:51.523Z,36.51
2019-05-13T20:30:23.283Z,37.58
2019-05-13T20:32:55.717Z,37.48
2019-05-13T20:35:28.299Z,37.89
2019-05-13T20:38:02.154Z,35.64
2019-05-13T20:40:36.318Z,35.64
2019-05-13T20:44:37.475Z,35.92
2019-05-13T20:47:10.306Z,38.03
2019-05-13T20:49:43.008Z,36.78
2019-05-13T20:52:16.273Z,36.78
2019-05-13T20:54:51.166Z,35.29
2019-05-13T20:57:32.316Z,36.02
2019-05-13T21:00:07.569Z,35.99
2019-05-13T21:02:41.995Z,35.66
2019-05-13T21:05:21.720Z,36.23
2019-05-13T21:07:53.292Z,35.72
2019-05-13T21:10:25.118Z,35.29
2019-05-13T21:12:57.699Z,35.29
2019-05-13T21:15:31.690Z,35.10
2019-05-13T21:18:06.684Z,35.49
2019-05-13T21:21:03.416Z,36.15
2019-05-13T21:23:36.667Z,36.56
2019-05-13T21:26:12.977Z,36.06
2019-05-13T21:28:43.542Z,35.86
2019-05-13T21:31:16.069Z,35.74
2019-05-13T21:33:48.617Z,35.80
2019-05-13T21:36:21.602Z,35.53
2019-05-13T21:38:54.478Z,36.15
2019-05-13T21:41:27.346Z,36.07
2019-05-13T21:44:01.268Z,36.00
2019-05-13T21:46:34.397Z,36.16
2019-05-13T21:49:06.913Z,36.02
2019-05-13T21:51:42.337Z,36.48
2019-05-13T21:54:15.810Z,36.43
2019-05-13T21:56:51.455Z,36.91
2019-05-13T21:59:23.462Z,36.86
2019-05-13T22:01:56.003Z,37.11
2019-05-13T22:04:31.562Z,37.46
2019-05-13T22:07:04.391Z,37.22
2019-05-13T22:09:36.822Z,37.47
2019-05-13T22:12:09.951Z,38.02
2019-05-13T22:14:43.621Z,37.84
2019-05-13T22:17:16.525Z,38.18
2019-05-13T22:19:51.122Z,38.45
2019-05-13T22:22:23.321Z,39.05
2019-05-13T22:24:56.314Z,39.04
2019-05-13T22:27:28.777Z,38.96
2019-05-13T22:30:01.456Z,38.96
2019-05-13T22:32:34.064Z,38.78
2019-05-13T22:35:07.091Z,38.88
2019-05-13T22:37:39.246Z,39.40
2019-05-13T22:40:13.441Z,39.18
2019-05-13T22:42:47.658Z,39.21
2019-05-13T22:45:22.091Z,40.23
2019-05-13T22:47:54.677Z,40.20
2019-05-13T22:50:28.313Z,41.01
2019-05-13T22:53:01.416Z,44.11
2019-05-13T22:55:35.472Z,44.11
2019-05-13T22:58:08.860Z,43.45
2019-05-13T23:00:43.578Z,43.69
2019-05-13T23:03:19.290Z,44.33
2019-05-13T23:05:52.220Z,44.47
2019-05-13T23:08:24.883Z,46.44
2019-05-13T23:10:57.413Z,46.44
2019-05-13T23:13:31.301Z,46.31
2019-05-13T23:16:04.291Z,47.62
2019-05-13T23:18:37.312Z,48.07
2019-05-13T23:21:11.469Z,49.67
2019-05-13T23:23:44.062Z,49.67
2019-05-13T23:26:16.649Z,50.39
2019-05-13T23:28:49.309Z,50.62
2019-05-13T23:31:21.814Z,51.81
2019-05-13T23:33:54.688Z,51.81
2019-05-13T23:36:27.294Z,52.86
2019-05-13T23:39:01.047Z,52.73
2019-05-13T23:41:35.554Z,53.07
2019-05-13T23:44:23.298Z,53.07
2019-05-13T23:46:45.358Z,53.96
2019-05-13T23:49:21.076Z,55.35
2019-05-13T23:51:53.770Z,55.36
2019-05-13T23:54:56.031Z,55.36
2019-05-13T23:57:07.443Z,55.39
2019-05-13T23:59:42.038Z,56.06
